Time;durP1;ratioP1;P1;durP2;ratioP2;P2;SDS_P1;SDS_P2;PMS_P1;PMS_P2;Temp;Humidity;BMP_temperature;BMP_pressure;BME280_temperature;BME280_humidity;BME280_pressure;Samples;Min_cycle;Max_cycle;Signal;HPM_P1;HPM_P2
2021/11/12 00:14:52;;;;;;;;;61.25;50.00;;;;;8.93;62.57;101819.16;5101437;27;45305;-65
2021/11/12 00:17:20;;;;;;;;;65.00;50.75;;;;;8.84;62.71;101814.78;5101180;27;45373;-64
2021/11/12 00:19:47;;;;;;;;;61.00;50.25;;;;;8.89;62.42;101820.09;5117010;27;47171;-64
2021/11/12 00:22:12;;;;;;;;;60.50;47.25;;;;;8.88;62.73;101811.19;5100988;27;45796;-64
2021/11/12 00:24:38;;;;;;;;;61.25;50.75;;;;;8.87;62.76;101817.44;5100873;27;45394;-65
2021/11/12 00:27:05;;;;;;;;;59.75;49.50;;;;;8.81;62.66;101813.94;5100995;27;45317;-65
2021/11/12 00:29:36;;;;;;;;;59.25;47.50;;;;;8.85;62.54;101815.66;5101038;27;46885;-64
2021/11/12 00:37:24;;;;;;;;;62.25;49.50;;;;;8.83;62.98;101809.47;5101061;27;45456;-64
2021/11/12 00:39:58;;;;;;;;;66.00;50.75;;;;;8.83;63.09;101815.66;5100832;27;45600;-64
2021/11/12 00:45:08;;;;;;;;;66.75;52.75;;;;;8.79;62.97;101800.63;5101157;27;45409;-64
2021/11/12 00:55:14;;;;;;;;;63.00;51.25;;;;;8.66;62.84;101797.16;5100827;27;45524;-64
2021/11/12 00:57:40;;;;;;;;;58.00;49.75;;;;;8.67;62.95;101795.38;5099760;27;45448;-64
2021/11/12 01:00:07;;;;;;;;;63.75;49.00;;;;;8.69;63.08;101799.81;5100384;27;46191;-64
2021/11/12 01:02:34;;;;;;;;;53.25;44.50;;;;;8.64;63.03;101800.75;5100783;27;45345;-64
2021/11/12 01:05:00;;;;;;;;;60.50;48.25;;;;;8.62;63.14;101802.53;5100674;27;45317;-64
2021/11/12 01:07:25;;;;;;;;;58.75;48.25;;;;;8.61;63.50;101798.13;5100506;27;46124;-64
2021/11/12 01:09:50;;;;;;;;;57.25;46.00;;;;;8.60;63.36;101802.53;5100440;27;45443;-64
2021/11/12 01:12:16;;;;;;;;;61.00;49.00;;;;;8.59;63.09;101795.47;5100533;27;45300;-64
2021/11/12 01:14:42;;;;;;;;;59.00;46.00;;;;;8.55;63.22;101790.16;5100693;27;45320;-64
2021/11/12 01:17:07;;;;;;;;;60.75;47.75;;;;;8.50;63.13;101793.75;5100544;27;45232;-64
2021/11/12 01:19:33;;;;;;;;;61.75;49.25;;;;;8.53;63.23;101779.53;5100292;27;45393;-65
2021/11/12 01:21:58;;;;;;;;;56.00;43.50;;;;;8.53;63.37;101768.88;5100328;27;45278;-64
2021/11/12 01:24:24;;;;;;;;;56.50;47.50;;;;;8.55;63.44;101779.53;5100237;27;45282;-64
2021/11/12 01:26:49;;;;;;;;;57.00;45.50;;;;;8.51;63.24;101782.19;5100661;27;45392;-64
2021/11/12 01:29:15;;;;;;;;;56.00;45.75;;;;;8.49;63.26;101778.66;5100226;27;45281;-64
2021/11/12 01:31:41;;;;;;;;;55.50;44.50;;;;;8.48;63.27;101766.25;5095814;27;45381;-64
2021/11/12 01:34:08;;;;;;;;;59.75;48.25;;;;;8.50;62.97;101775.13;5100402;27;45386;-64
2021/11/12 01:36:39;;;;;;;;;56.75;46.50;;;;;8.48;63.20;101770.69;5098993;27;45430;-64
2021/11/12 01:39:11;;;;;;;;;58.25;46.50;;;;;8.51;63.08;101768.88;5099860;27;47213;-64
2021/11/12 01:41:41;;;;;;;;;55.00;43.50;;;;;8.52;62.92;101768.00;5099973;27;45331;-64
2021/11/12 01:44:09;;;;;;;;;54.50;43.50;;;;;8.53;63.05;101772.41;5086764;27;45239;-64
2021/11/12 01:46:47;;;;;;;;;54.00;44.50;;;;;8.55;63.17;101764.44;5100103;27;45401;-64
2021/11/12 01:51:51;;;;;;;;;53.00;43.75;;;;;8.47;62.82;101767.16;5099693;27;45381;-64
2021/11/12 01:59:12;;;;;;;;;56.25;44.25;;;;;8.43;62.93;101751.22;5099706;27;46275;-64
2021/11/12 02:01:46;;;;;;;;;59.00;46.00;;;;;8.40;62.75;101751.22;5099482;27;45694;-64
2021/11/12 02:04:14;;;;;;;;;53.00;42.75;;;;;8.44;62.78;101751.22;5099841;27;45217;-64
2021/11/12 02:06:41;;;;;;;;;49.00;42.50;;;;;8.44;62.55;101750.34;5099852;27;45489;-64
2021/11/12 02:09:21;;;;;;;;;51.75;42.50;;;;;8.42;62.64;101749.41;5099591;27;45521;-64
2021/11/12 02:11:55;;;;;;;;;49.25;42.75;;;;;8.45;63.03;101746.75;5115682;27;45632;-64
2021/11/12 02:14:22;;;;;;;;;52.50;42.00;;;;;8.45;62.48;101747.66;5093935;27;45366;-64
2021/11/12 02:17:12;;;;;;;;;55.00;45.25;;;;;8.42;62.65;101738.78;5099861;27;45253;-64
2021/11/12 02:19:47;;;;;;;;;55.50;46.50;;;;;8.39;62.77;101750.34;5097914;27;47210;-64
2021/11/12 02:22:13;;;;;;;;;57.00;47.50;;;;;8.37;62.80;101741.50;5099426;27;45794;-64
2021/11/12 02:24:45;;;;;;;;;55.75;43.50;;;;;8.36;63.02;101734.38;5115224;27;45451;-64
2021/11/12 02:27:12;;;;;;;;;52.25;43.00;;;;;8.31;63.04;101721.13;5099337;27;45462;-64
2021/11/12 02:29:45;;;;;;;;;54.00;44.50;;;;;8.31;62.80;101720.25;5101207;27;47073;-65
2021/11/12 02:32:22;;;;;;;;;51.00;38.00;;;;;8.30;62.95;101715.81;5103002;27;45579;-64
2021/11/12 02:34:51;;;;;;;;;55.50;45.50;;;;;8.34;62.69;101722.88;5103433;27;45449;-65
2021/11/12 02:37:21;;;;;;;;;55.00;45.25;;;;;8.35;62.62;101733.50;5102623;27;45297;-64
2021/11/12 02:39:47;;;;;;;;;55.25;41.50;;;;;8.34;62.48;101730.88;5102683;27;45499;-64
2021/11/12 02:42:13;;;;;;;;;43.75;39.75;;;;;8.34;62.47;101729.06;5102393;27;45318;-64
2021/11/12 02:44:40;;;;;;;;;42.25;38.50;;;;;8.32;62.96;101730.00;5103041;27;45340;-64
2021/11/12 02:47:12;;;;;;;;;49.50;41.50;;;;;8.33;62.56;101723.75;5102532;27;45468;-64
2021/11/12 02:49:38;;;;;;;;;55.75;45.50;;;;;8.36;62.59;101723.75;5102477;27;46119;-64
2021/11/12 02:52:08;;;;;;;;;60.25;42.50;;;;;8.39;62.66;101729.03;5102299;27;45405;-64
2021/11/12 02:54:35;;;;;;;;;42.25;36.25;;;;;8.41;62.52;101729.03;5100852;27;45384;-64
2021/11/12 02:57:02;;;;;;;;;54.00;45.00;;;;;8.39;62.51;101726.38;5102454;27;45258;-64
2021/11/12 02:59:28;;;;;;;;;53.25;42.00;;;;;8.38;62.66;101723.75;5102397;27;46221;-64
2021/11/12 03:01:56;;;;;;;;;46.50;37.50;;;;;8.36;62.42;101721.09;5102340;27;45377;-64
2021/11/12 03:04:21;;;;;;;;;54.00;44.00;;;;;8.31;62.49;101712.25;5102524;27;45418;-64
2021/11/12 03:06:48;;;;;;;;;53.50;42.25;;;;;8.28;62.70;101721.13;5102517;27;45393;-64
2021/11/12 03:09:14;;;;;;;;;43.75;38.50;;;;;8.23;62.48;101724.72;5102259;27;45271;-64
2021/11/12 03:11:41;;;;;;;;;50.75;39.75;;;;;8.21;62.73;101726.53;5102461;27;45341;-64
2021/11/12 03:14:07;;;;;;;;;47.75;38.00;;;;;8.18;62.73;101722.09;5102542;27;45255;-64
2021/11/12 03:16:34;;;;;;;;;42.75;38.50;;;;;8.20;62.63;101716.75;5102430;27;45269;-64
2021/11/12 03:19:01;;;;;;;;;50.25;41.25;;;;;8.23;62.59;101717.63;5101411;27;46159;-64
2021/11/12 03:21:27;;;;;;;;;51.25;40.00;;;;;8.23;62.83;101717.63;5102223;27;45651;-64
2021/11/12 03:23:59;;;;;;;;;45.00;38.50;;;;;8.22;62.58;101713.22;5101201;27;45229;-64
2021/11/12 03:26:34;;;;;;;;;40.50;37.25;;;;;8.23;62.71;101719.41;5102253;27;45267;-64
2021/11/12 04:02:08;;;;;;;;;39.00;36.25;;;;;8.05;62.36;101705.34;5102703;27;45393;-64
2021/11/12 04:18:11;;;;;;;;;40.00;36.25;;;;;7.88;62.73;101670.00;5101589;27;45464;-64
2021/11/12 04:20:53;;;;;;;;;34.50;29.75;;;;;7.88;62.27;101667.34;5093779;27;45298;-65
2021/11/12 05:10:00;;;;;;;;;36.25;32.50;;;;;7.59;62.25;101620.56;5099112;27;45530;-64
2021/11/12 05:43:35;;;;;;;;;28.50;26.75;;;;;7.29;62.56;101571.16;5099082;27;45778;-64
2021/11/12 05:55:20;;;;;;;;;31.00;26.50;;;;;7.33;63.08;101576.41;5100035;27;45327;-64
2021/11/12 05:57:46;;;;;;;;;27.00;26.00;;;;;7.29;63.45;101556.09;5100026;27;45574;-65
2021/11/12 06:00:15;;;;;;;;;22.00;22.00;;;;;7.30;63.43;101568.50;5099443;27;46412;-64
2021/11/12 06:02:41;;;;;;;;;26.25;23.50;;;;;7.31;63.41;101567.59;5099296;27;45761;-64
2021/11/12 06:05:07;;;;;;;;;26.50;24.00;;;;;7.32;62.87;101572.03;5103125;27;45512;-64
2021/11/12 06:07:33;;;;;;;;;28.25;22.50;;;;;7.26;63.00;101555.25;5101997;27;45477;-64
2021/11/12 06:09:58;;;;;;;;;24.00;24.00;;;;;7.23;63.48;101546.41;5101357;27;45455;-64
2021/11/12 06:12:26;;;;;;;;;24.25;21.50;;;;;7.26;63.17;101561.41;5102567;27;45385;-65
2021/11/12 06:14:52;;;;;;;;;25.50;22.75;;;;;7.26;63.59;101563.22;5103459;27;45282;-64
2021/11/12 06:17:17;;;;;;;;;25.25;21.75;;;;;7.25;63.69;101562.34;5103549;27;45148;-65
2021/11/12 06:19:43;;;;;;;;;22.25;19.00;;;;;7.23;63.59;101559.69;5103170;27;46638;-65
2021/11/12 06:22:08;;;;;;;;;22.75;22.75;;;;;7.21;63.13;101555.25;5102619;27;45172;-64
2021/11/12 06:24:33;;;;;;;;;23.25;20.25;;;;;7.19;63.60;101534.03;5103064;27;45315;-65
2021/11/12 06:26:59;;;;;;;;;26.00;21.75;;;;;7.18;63.83;101534.03;5103226;27;45448;-64
2021/11/12 06:29:25;;;;;;;;;24.25;19.75;;;;;7.22;63.54;101543.75;5102906;27;46605;-64
2021/11/12 06:31:51;;;;;;;;;24.00;20.00;;;;;7.27;63.75;101547.28;5102450;27;45431;-64
2021/11/12 06:34:17;;;;;;;;;28.25;21.50;;;;;7.28;63.55;101548.13;5103302;27;45464;-64
2021/11/12 06:36:42;;;;;;;;;24.00;20.00;;;;;7.20;63.55;101534.88;5103114;27;45331;-64
2021/11/12 06:39:09;;;;;;;;;20.75;19.00;;;;;7.34;63.46;101553.44;5101743;27;46239;-65
2021/11/12 06:41:53;;;;;;;;;22.00;20.50;;;;;7.31;63.57;101553.44;5102649;27;45335;-65
2021/11/12 06:49:36;;;;;;;;;24.25;21.75;;;;;7.32;63.77;101564.06;5090017;27;45323;-64
2021/11/12 06:52:02;;;;;;;;;24.50;20.25;;;;;7.34;63.48;101561.41;5102578;27;45657;-64
2021/11/12 06:54:28;;;;;;;;;22.50;21.00;;;;;7.30;63.57;101564.94;5102921;27;45389;-64
2021/11/12 06:56:54;;;;;;;;;22.00;20.00;;;;;7.33;63.17;101568.47;5102361;27;45549;-64
2021/11/12 06:59:20;;;;;;;;;24.50;21.75;;;;;7.34;63.78;101559.59;5102456;27;45383;-65
2021/11/12 07:01:47;;;;;;;;;22.75;17.75;;;;;7.33;63.63;101554.31;5102361;27;45536;-65
2021/11/12 07:04:13;;;;;;;;;18.50;17.50;;;;;7.26;63.97;101552.59;5102846;27;45305;-64
2021/11/12 07:06:38;;;;;;;;;23.25;22.00;;;;;7.29;63.71;101558.75;5102004;27;45439;-65
2021/11/12 07:09:06;;;;;;;;;29.25;21.75;;;;;7.27;64.25;101549.94;5100414;27;46879;-65
2021/11/12 07:11:33;;;;;;;;;22.25;21.50;;;;;7.27;64.21;101549.00;5099411;27;45380;-64
2021/11/12 07:13:58;;;;;;;;;22.00;20.00;;;;;7.25;63.77;101549.06;5100654;27;45593;-64
2021/11/12 07:16:24;;;;;;;;;22.75;20.50;;;;;7.24;64.01;101547.28;5102531;27;45331;-64
2021/11/12 07:18:49;;;;;;;;;28.25;22.75;;;;;7.22;63.84;101541.09;5103421;27;45368;-64
2021/11/12 07:21:15;;;;;;;;;25.00;21.00;;;;;7.21;63.83;101540.19;5102327;27;45307;-65
2021/11/12 07:23:41;;;;;;;;;25.25;25.00;;;;;7.28;64.23;101546.34;5101016;27;45303;-65
2021/11/12 07:26:06;;;;;;;;;22.00;21.75;;;;;7.31;64.39;101554.31;5102125;27;45420;-64
2021/11/12 07:28:32;;;;;;;;;23.50;21.00;;;;;7.32;64.12;101555.22;5101441;27;45424;-64
2021/11/12 07:30:57;;;;;;;;;28.25;23.25;;;;;7.31;64.15;101545.47;5102066;27;45435;-66
2021/11/12 07:33:23;;;;;;;;;24.00;20.75;;;;;7.35;64.46;101552.50;5097855;27;45733;-65
2021/11/12 07:35:53;;;;;;;;;25.75;20.75;;;;;7.37;64.54;101553.41;5101786;27;45534;-69
2021/11/12 07:38:25;;;;;;;;;26.25;24.50;;;;;7.38;64.14;101537.47;5117102;27;47281;-65
2021/11/12 07:48:43;;;;;;;;;25.75;22.00;;;;;7.33;64.59;101531.28;5081038;27;45364;-65
2021/11/12 07:51:09;;;;;;;;;28.00;24.50;;;;;7.30;64.78;101523.34;5100607;27;45176;-65
2021/11/12 07:53:35;;;;;;;;;33.00;29.25;;;;;7.36;64.31;101533.03;5103757;27;45705;-65
2021/11/12 07:56:01;;;;;;;;;22.25;22.00;;;;;7.35;64.39;101525.94;5100588;27;45441;-64
2021/11/12 07:58:26;;;;;;;;;26.25;23.75;;;;;7.34;64.57;101513.59;5100716;27;45437;-66
2021/11/12 08:00:52;;;;;;;;;31.25;27.00;;;;;7.33;64.54;101501.19;5094211;27;46122;-64
2021/11/12 08:03:18;;;;;;;;;35.00;25.00;;;;;7.33;64.53;101503.84;5108726;27;45481;-64
2021/11/12 08:05:45;;;;;;;;;23.75;22.50;;;;;7.36;64.34;101511.78;5091582;27;45511;-65
2021/11/12 08:08:14;;;;;;;;;30.75;28.50;;;;;7.30;64.57;101504.75;5100353;27;47018;-64
2021/11/12 08:11:03;;;;;;;;;33.00;25.50;;;;;7.26;64.98;101518.06;5096816;27;45727;-65
2021/11/12 08:19:02;;;;;;;;;31.25;30.00;;;;;7.31;64.69;101561.41;5096052;27;46182;-64
2021/11/12 08:21:38;;;;;;;;;33.00;30.00;;;;;7.28;65.01;101561.41;5088331;27;45687;-64
2021/11/12 08:26:59;;;;;;;;;33.50;28.25;;;;;7.38;65.17;101555.16;5087396;27;45349;-64
2021/11/12 08:32:19;;;;;;;;;40.50;33.75;;;;;7.44;64.52;101544.50;5099454;27;45274;-64
2021/11/12 08:37:41;;;;;;;;;38.00;33.25;;;;;7.47;64.67;101547.16;5088897;27;45347;-64
2021/11/12 08:42:40;;;;;;;;;32.75;29.00;;;;;7.57;64.87;101562.13;5099416;27;45585;-65
2021/11/12 08:45:19;;;;;;;;;34.00;27.50;;;;;7.59;64.50;101557.66;5099892;27;45469;-64
2021/11/12 08:47:52;;;;;;;;;21.00;21.00;;;;;7.54;64.25;101551.50;5097578;27;45490;-64
2021/11/12 08:50:20;;;;;;;;;33.00;31.50;;;;;7.64;64.14;101554.13;5099321;27;45550;-64
2021/11/12 08:52:47;;;;;;;;;30.50;26.50;;;;;7.65;63.97;101534.59;5115444;27;46113;-63
2021/11/12 08:55:15;;;;;;;;;27.75;26.25;;;;;7.62;64.16;101543.50;5098381;27;45362;-64
2021/11/12 08:57:41;;;;;;;;;34.00;28.25;;;;;7.61;64.43;101547.91;5098663;27;45210;-64
2021/11/12 09:00:12;;;;;;;;;25.00;24.75;;;;;7.63;64.17;101539.94;5098432;27;45290;-64
2021/11/12 09:02:38;;;;;;;;;35.50;32.00;;;;;7.63;64.21;101531.09;5098895;27;45805;-64
2021/11/12 09:05:04;;;;;;;;;36.75;33.50;;;;;7.61;64.52;101534.63;5115850;27;45378;-62
2021/11/12 09:07:30;;;;;;;;;29.25;27.00;;;;;7.62;64.37;101543.50;5098583;27;45344;-64
2021/11/12 09:09:56;;;;;;;;;39.00;32.00;;;;;7.66;64.79;101544.34;5099283;27;47055;-64
2021/11/12 09:12:24;;;;;;;;;30.00;27.25;;;;;7.75;64.64;101562.88;5099161;27;45706;-64
2021/11/12 09:14:52;;;;;;;;;34.50;30.50;;;;;7.74;64.45;101555.81;5099767;27;45725;-64
2021/11/12 09:17:20;;;;;;;;;33.75;32.75;;;;;7.78;64.35;101555.78;5099692;27;45473;-64
2021/11/12 09:19:49;;;;;;;;;38.75;34.50;;;;;7.81;64.34;101556.66;5098928;27;45478;-63
2021/11/12 09:22:16;;;;;;;;;37.50;31.50;;;;;7.82;64.30;101553.06;5095079;27;45897;-63
2021/11/12 09:24:43;;;;;;;;;37.00;33.50;;;;;7.88;63.92;101558.34;5091967;27;45346;-64
2021/11/12 09:27:09;;;;;;;;;40.00;34.25;;;;;7.95;64.42;101568.94;5099035;27;45612;-64
2021/11/12 09:29:35;;;;;;;;;37.75;30.75;;;;;7.95;64.15;101549.41;5099478;27;46395;-64
2021/11/12 09:32:00;;;;;;;;;40.50;31.25;;;;;8.00;64.11;101542.28;5114720;27;45678;-63
2021/11/12 09:34:26;;;;;;;;;36.25;28.50;;;;;8.00;63.98;101536.09;5099085;27;45424;-66
2021/11/12 09:36:52;;;;;;;;;36.00;32.50;;;;;7.95;64.25;101526.41;5098600;27;45345;-64
2021/11/12 09:39:17;;;;;;;;;33.50;33.25;;;;;7.97;64.26;101523.72;5102604;27;46966;-66
2021/11/12 09:41:46;;;;;;;;;32.25;29.75;;;;;7.93;64.40;101514.88;5102671;27;45345;-64
2021/11/12 09:44:12;;;;;;;;;35.75;34.50;;;;;7.92;64.55;101523.75;5103238;27;45606;-62
2021/11/12 09:46:38;;;;;;;;;36.00;32.50;;;;;7.94;64.88;101532.59;5102585;27;45443;-64
2021/11/12 09:49:04;;;;;;;;;42.75;36.00;;;;;8.00;64.78;101541.41;5102975;27;45752;-64
2021/11/12 09:51:31;;;;;;;;;44.00;35.50;;;;;8.03;64.78;101531.63;5102236;27;45312;-64
2021/11/12 09:53:57;;;;;;;;;36.75;35.25;;;;;8.03;64.27;101533.41;5102830;27;45374;-64
2021/11/12 09:56:22;;;;;;;;;38.00;36.75;;;;;8.03;64.16;101530.75;5102476;27;45339;-65
2021/11/12 09:58:49;;;;;;;;;53.25;38.75;;;;;7.99;64.34;101516.59;5102246;27;45415;-64
2021/11/12 10:01:14;;;;;;;;;46.25;40.00;;;;;7.97;64.55;101491.81;5102218;27;45393;-65
2021/11/12 10:03:46;;;;;;;;;47.75;39.75;;;;;7.96;64.28;101495.38;5102924;27;45626;-65
2021/11/12 10:06:26;;;;;;;;;47.50;41.50;;;;;7.90;64.47;101480.38;5099130;27;45584;-65
2021/11/12 10:08:53;;;;;;;;;44.75;37.50;;;;;7.83;64.54;101464.47;5102069;27;46496;-65
2021/11/12 10:11:26;;;;;;;;;49.25;41.50;;;;;7.93;64.88;101469.66;5102470;27;45726;-65
2021/11/12 10:14:10;;;;;;;;;47.00;39.75;;;;;7.97;64.87;101473.22;5102351;27;45411;-65
2021/11/12 10:16:36;;;;;;;;;41.25;37.25;;;;;8.04;64.88;101472.25;5094732;27;45527;-65
2021/11/12 10:19:04;;;;;;;;;49.50;36.50;;;;;8.04;64.69;101466.06;5101207;27;47154;-65
2021/11/12 10:21:46;;;;;;;;;55.00;43.50;;;;;8.03;64.91;101469.59;5117607;27;45404;-65
2021/11/12 10:24:27;;;;;;;;;47.50;37.00;;;;;8.04;64.99;101471.38;5097688;27;45472;-65
2021/11/12 10:26:56;;;;;;;;;35.25;34.00;;;;;8.10;65.30;101468.63;5099838;27;45399;-65
2021/11/12 10:29:27;;;;;;;;;44.50;36.50;;;;;8.14;65.04;101462.41;5101859;27;45600;-65
2021/11/12 10:31:59;;;;;;;;;45.50;39.00;;;;;8.12;64.96;101453.56;5101119;27;46210;-65
2021/11/12 10:34:33;;;;;;;;;45.50;37.25;;;;;8.18;65.04;101466.78;5117550;27;45421;-65
2021/11/12 10:37:03;;;;;;;;;53.25;42.25;;;;;8.19;65.01;101465.00;5101935;27;45388;-65
2021/11/12 10:39:31;;;;;;;;;45.00;39.25;;;;;8.24;65.10;101464.06;5101183;27;46597;-65
2021/11/12 10:42:00;;;;;;;;;45.75;38.75;;;;;8.23;65.02;101446.31;5101819;27;45659;-65
2021/11/12 10:44:25;;;;;;;;;51.25;41.50;;;;;8.25;64.90;101457.84;5101559;27;45448;-64
2021/11/12 10:46:51;;;;;;;;;43.75;39.25;;;;;8.19;64.94;101459.69;5101728;27;45556;-65
2021/11/12 10:49:31;;;;;;;;;42.50;40.00;;;;;8.19;64.85;101463.22;5099911;27;47577;-65
2021/11/12 10:52:10;;;;;;;;;38.75;33.75;;;;;8.31;64.88;101459.53;5117367;27;45641;-64
2021/11/12 10:54:42;;;;;;;;;51.25;37.75;;;;;8.39;64.72;101454.16;5093546;27;45547;-64
2021/11/12 10:57:10;;;;;;;;;43.00;38.25;;;;;8.40;65.23;101443.47;5101414;27;46023;-64
2021/11/12 10:59:51;;;;;;;;;41.00;36.00;;;;;8.38;65.11;101412.47;5102005;27;46428;-64
2021/11/12 11:02:22;;;;;;;;;46.50;37.50;;;;;8.48;64.92;101400.84;5101208;27;45784;-65
2021/11/12 11:04:47;;;;;;;;;42.75;33.25;;;;;8.49;64.87;101391.97;5101526;27;45449;-64
2021/11/12 11:07:27;;;;;;;;;38.00;34.50;;;;;8.56;64.80;101390.09;5100370;27;45729;-66
2021/11/12 11:09:56;;;;;;;;;40.75;36.00;;;;;8.59;65.10;101392.72;5100065;27;46165;-65
2021/11/12 11:12:41;;;;;;;;;41.00;37.25;;;;;8.57;64.93;101379.44;5101198;27;45344;-65
2021/11/12 11:15:30;;;;;;;;;40.25;34.50;;;;;8.68;65.04;101389.91;5101413;27;45327;-65
2021/11/12 11:18:25;;;;;;;;;45.25;37.75;;;;;8.76;64.87;101382.72;5101621;27;45368;-65
2021/11/12 11:21:14;;;;;;;;;44.50;38.00;;;;;8.81;64.71;101367.53;5100042;27;47037;-65
2021/11/12 11:23:57;;;;;;;;;46.50;40.50;;;;;8.78;64.76;101378.22;5094610;27;45675;-64
2021/11/12 11:26:29;;;;;;;;;42.00;36.00;;;;;8.89;64.54;101399.38;5098382;27;45463;-63
2021/11/12 11:29:01;;;;;;;;;35.75;34.00;;;;;8.96;64.75;101400.19;5097764;27;45523;-63
2021/11/12 11:31:28;;;;;;;;;48.50;41.75;;;;;8.97;64.80;101393.94;5086872;27;47267;-63
2021/11/12 11:33:55;;;;;;;;;50.00;40.25;;;;;9.00;64.95;101393.88;5115520;27;45501;-63
2021/11/12 11:36:23;;;;;;;;;44.00;38.50;;;;;9.03;64.91;101385.84;5101649;27;45424;-63
2021/11/12 11:38:51;;;;;;;;;47.75;38.75;;;;;9.08;64.65;101384.00;5095022;27;45455;-63
2021/11/12 11:41:18;;;;;;;;;44.75;40.00;;;;;9.12;64.54;101396.38;5099409;27;46140;-63
2021/11/12 11:43:45;;;;;;;;;49.75;39.00;;;;;9.17;64.32;101414.94;5094645;27;45453;-63
2021/11/12 11:46:19;;;;;;;;;46.50;38.50;;;;;9.20;64.35;101402.44;5100906;27;45399;-63
2021/11/12 11:48:45;;;;;;;;;45.00;38.50;;;;;9.21;64.17;101384.69;5100695;27;45687;-63
2021/11/12 11:51:28;;;;;;;;;42.25;37.75;;;;;9.21;64.53;101388.22;5100652;27;46560;-63
2021/11/12 11:53:54;;;;;;;;;66.75;54.50;;;;;9.21;64.38;101414.00;5099839;27;45382;-64
2021/11/12 11:56:31;;;;;;;;;48.00;41.25;;;;;9.29;64.30;101412.09;5100579;27;45411;-63
2021/11/12 11:58:59;;;;;;;;;46.00;38.00;;;;;9.23;64.15;101374.88;5097417;27;45440;-63
2021/11/12 12:01:38;;;;;;;;;45.25;39.50;;;;;9.35;64.45;101392.44;5099003;27;46259;-63
2021/11/12 12:04:10;;;;;;;;;44.50;38.75;;;;;9.41;64.24;101381.69;5090005;27;45767;-63
2021/11/12 12:06:38;;;;;;;;;50.00;42.00;;;;;9.41;64.85;101381.69;5097672;27;45421;-63
2021/11/12 12:09:10;;;;;;;;;40.75;38.25;;;;;9.47;64.60;101381.56;5109290;27;45807;-63
2021/11/12 12:11:53;;;;;;;;;48.00;40.25;;;;;9.52;64.92;101370.81;5100158;27;46546;-63
2021/11/12 12:14:26;;;;;;;;;49.75;42.25;;;;;9.56;64.74;101362.75;5094194;27;45262;-63
2021/11/12 12:17:10;;;;;;;;;49.75;41.75;;;;;9.62;64.62;101365.31;5100318;27;45426;-63
2021/11/12 14:51:58;;;;;;;;;49.00;41.50;;;;;10.74;69.38;101187.66;5149478;27;45307;-61
2021/11/12 14:54:31;;;;;;;;;50.50;40.25;;;;;10.85;69.08;101168.72;5105210;27;45361;-62
2021/11/12 14:56:58;;;;;;;;;52.50;43.25;;;;;11.05;69.15;101170.84;5116918;27;45340;-62
2021/11/12 14:59:24;;;;;;;;;52.75;42.25;;;;;11.20;68.90;101172.22;5115261;27;45527;-62
2021/11/12 15:01:49;;;;;;;;;51.75;42.25;;;;;11.32;68.76;101180.75;5116601;27;45365;-62
2021/11/12 15:04:17;;;;;;;;;47.25;39.50;;;;;11.42;68.32;101184.03;5121121;27;45304;-62
2021/11/12 15:06:42;;;;;;;;;50.50;40.25;;;;;11.49;68.26;101188.31;5113358;27;45424;-62
2021/11/12 15:09:16;;;;;;;;;46.50;39.00;;;;;11.63;67.87;101195.03;5117007;27;45319;-62
2021/11/12 15:11:43;;;;;;;;;50.25;40.75;;;;;11.71;68.05;101193.03;5116442;27;45938;-61
2021/11/12 15:14:14;;;;;;;;;50.75;39.75;;;;;11.76;67.58;101192.84;5120947;27;45572;-62
2021/11/12 15:16:41;;;;;;;;;46.50;40.00;;;;;11.80;67.30;101187.38;5116783;27;45292;-61
2021/11/12 15:19:11;;;;;;;;;43.50;37.75;;;;;11.91;67.10;101194.19;5116808;27;45435;-62
2021/11/12 15:22:07;;;;;;;;;48.75;38.75;;;;;11.96;67.20;101184.25;5116730;27;46333;-61
2021/11/12 15:29:33;;;;;;;;;50.00;41.75;;;;;12.11;66.70;101181.13;5113428;27;45473;-61
2021/11/12 15:34:26;;;;;;;;;48.25;39.25;;;;;12.19;66.61;101187.06;5112595;27;45328;-61
2021/11/12 15:39:40;;;;;;;;;54.00;41.25;;;;;12.25;66.50;101187.84;5118509;27;45341;-61
2021/11/12 15:45:09;;;;;;;;;44.75;37.25;;;;;12.23;66.68;101169.16;5090228;27;45769;-61
2021/11/12 15:47:41;;;;;;;;;35.25;33.00;;;;;12.28;66.56;101177.91;5114702;27;45411;-61
2021/11/12 15:50:11;;;;;;;;;43.25;35.50;;;;;12.29;66.26;101182.31;5114678;27;45446;-61
2021/11/12 15:52:56;;;;;;;;;44.50;37.50;;;;;12.32;66.08;101187.56;5100755;27;45447;-61
2021/11/12 15:58:11;;;;;;;;;35.50;30.25;;;;;12.34;66.06;101195.56;5101635;27;45324;-61
2021/11/12 16:14:24;;;;;;;;;27.25;24.50;;;;;12.39;65.20;101223.03;5101107;27;45468;-62
2021/11/12 16:19:37;;;;;;;;;26.75;26.25;;;;;12.37;64.96;101214.19;5102243;27;45569;-62
2021/11/12 16:27:15;;;;;;;;;28.75;28.50;;;;;12.36;65.20;101212.44;5101610;27;45362;-62
2021/11/12 16:32:08;;;;;;;;;27.50;27.50;;;;;12.32;64.84;101203.63;5101914;27;45396;-63
2021/11/12 16:34:41;;;;;;;;;24.00;22.50;;;;;12.33;64.55;101207.16;5100635;27;46934;-64
2021/11/12 16:37:07;;;;;;;;;25.00;24.00;;;;;12.35;64.86;101211.56;5101568;27;45253;-63
2021/11/12 16:55:20;;;;;;;;;24.50;23.50;;;;;12.31;64.56;101198.31;5101172;27;46323;-62
2021/11/12 17:00:46;;;;;;;;;25.75;24.25;;;;;12.34;64.50;101195.56;5109634;27;45361;-67
2021/11/12 17:08:24;;;;;;;;;34.50;29.25;;;;;12.33;64.34;101205.38;5108325;27;45424;-62
2021/11/12 17:16:25;;;;;;;;;29.50;27.75;;;;;12.34;64.25;101190.19;5095927;27;45859;-62
2021/11/12 17:46:45;;;;;;;;;35.00;30.00;;;;;12.39;63.98;101137.38;5099158;27;45391;-61
2021/11/12 17:49:31;;;;;;;;;32.00;31.00;;;;;12.39;64.13;101142.72;5097385;27;46226;-62
2021/11/12 18:05:37;;;;;;;;;28.00;27.25;;;;;12.37;63.86;101142.78;5101038;27;45375;-62
2021/11/12 18:16:55;;;;;;;;;35.25;32.75;;;;;12.36;64.24;101145.50;5055759;27;45450;-62
2021/11/12 21:48:21;;;;;;;;;31.00;29.00;;;;;12.82;67.82;101127.88;5096219;27;45835;-63
2021/11/12 21:50:51;;;;;;;;;29.50;27.00;;;;;12.85;67.88;101129.56;5094051;27;45880;-62
2021/11/12 21:53:17;;;;;;;;;36.25;32.25;;;;;12.84;68.07;101133.16;5096861;27;45487;-63
2021/11/12 21:55:42;;;;;;;;;29.50;28.50;;;;;12.82;68.04;101135.91;5096596;27;45548;-64
2021/11/12 21:58:07;;;;;;;;;32.25;27.50;;;;;12.85;67.97;101135.78;5097037;27;46014;-64
2021/11/12 22:00:34;;;;;;;;;27.25;25.75;;;;;12.87;68.24;101128.56;5096217;27;45458;-64
2021/11/12 22:02:59;;;;;;;;;34.25;30.25;;;;;12.90;67.98;101127.59;5095407;27;45464;-64
2021/11/12 22:05:25;;;;;;;;;32.75;29.75;;;;;12.88;68.45;101127.66;5096573;27;45578;-63
2021/11/12 22:07:50;;;;;;;;;32.25;31.75;;;;;12.93;68.32;101122.09;5096519;27;47071;-64
2021/11/12 22:10:15;;;;;;;;;33.25;30.50;;;;;12.95;68.40;101121.13;5096458;27;45623;-64
2021/11/12 22:12:41;;;;;;;;;32.75;30.00;;;;;12.98;68.53;101117.47;5096344;27;45456;-64
2021/11/12 22:15:08;;;;;;;;;28.50;27.25;;;;;12.98;68.53;101112.13;5095612;27;45588;-63
2021/11/12 22:17:34;;;;;;;;;29.00;28.00;;;;;13.00;68.59;101114.72;5096779;27;45989;-63
2021/11/12 22:20:03;;;;;;;;;26.75;24.25;;;;;13.01;68.55;101108.44;5096608;27;45960;-63
2021/11/12 22:22:29;;;;;;;;;34.75;32.00;;;;;12.98;68.62;101102.25;5096375;27;45779;-63
2021/11/12 22:24:54;;;;;;;;;26.25;26.25;;;;;13.02;68.37;101105.69;5095637;27;45559;-64
2021/11/12 22:27:20;;;;;;;;;34.25;26.50;;;;;13.04;68.46;101092.25;5096340;27;46236;-65
2021/11/12 22:29:45;;;;;;;;;29.75;27.25;;;;;12.98;68.63;101075.47;5096481;27;45684;-63
2021/11/12 22:32:11;;;;;;;;;30.50;28.50;;;;;13.01;68.71;101079.81;5092751;27;45406;-64
2021/11/12 22:34:36;;;;;;;;;29.75;29.75;;;;;12.99;68.55;101079.00;5096404;27;45410;-64
2021/11/12 22:37:01;;;;;;;;;34.00;29.50;;;;;13.05;68.73;101099.38;5095912;27;45448;-63
2021/11/12 22:39:27;;;;;;;;;31.50;30.00;;;;;13.04;68.55;101092.25;5096100;27;45444;-63
2021/11/12 22:41:53;;;;;;;;;27.75;25.25;;;;;13.06;68.75;101090.38;5094394;27;45910;-62
2021/11/12 22:44:19;;;;;;;;;28.50;28.25;;;;;13.06;68.27;101099.28;5096242;27;45926;-62